Time;durP1;ratioP1;P1;durP2;ratioP2;P2;SDS_P1;SDS_P2;PMS_P1;PMS_P2;Temp;Humidity;BMP_temperature;BMP_pressure;BME280_temperature;BME280_humidity;BME280_pressure;Samples;Min_cycle;Max_cycle;Signal;HPM_P1;HPM_P2
2023/12/08 00:02:19;;;;;;;0.57;0.57;;;9.30;1.00;;;;;;5004643;28;20821;-75
2023/12/08 00:04:46;;;;;;;0.57;0.45;;;9.40;1.00;;;;;;4983877;28;20054;-74
2023/12/08 00:07:13;;;;;;;2.55;0.73;;;9.40;1.00;;;;;;4994355;28;20065;-74
2023/12/08 00:09:40;;;;;;;1.25;0.77;;;9.40;1.00;;;;;;5017777;28;20494;-74
2023/12/08 00:12:07;;;;;;;0.98;0.60;;;9.30;1.00;;;;;;5018227;28;20467;-74
2023/12/08 00:14:34;;;;;;;1.10;0.60;;;9.30;1.00;;;;;;4967201;28;20108;-74
2023/12/08 00:17:01;;;;;;;0.43;0.43;;;9.30;1.00;;;;;;4991664;28;20049;-74
2023/12/08 00:19:28;;;;;;;0.55;0.50;;;9.30;99.90;;;;;;5000697;28;20085;-74
2023/12/08 00:21:55;;;;;;;0.68;0.50;;;9.30;99.90;;;;;;4974283;28;20089;-74
2023/12/08 00:24:22;;;;;;;0.73;0.50;;;9.20;99.90;;;;;;4972507;28;20099;-74
2023/12/08 00:26:49;;;;;;;1.13;0.88;;;9.20;99.90;;;;;;4982481;28;20557;-74
2023/12/08 00:29:19;;;;;;;0.45;0.45;;;9.20;99.90;;;;;;4965698;28;20085;-75
2023/12/08 00:31:46;;;;;;;1.00;0.60;;;9.10;99.90;;;;;;4982502;28;20058;-74
2023/12/08 00:34:13;;;;;;;0.77;0.50;;;9.10;99.90;;;;;;4966555;28;20102;-74
2023/12/08 00:36:41;;;;;;;0.95;0.60;;;9.10;99.90;;;;;;4976675;28;20407;-74
2023/12/08 00:39:09;;;;;;;2.13;0.88;;;9.10;99.90;;;;;;4970275;28;20402;-74
2023/12/08 00:41:36;;;;;;;0.70;0.60;;;9.00;99.90;;;;;;4943315;28;20054;-74
2023/12/08 00:44:03;;;;;;;1.27;0.75;;;9.00;99.90;;;;;;4958511;28;20186;-74
2023/12/08 00:46:31;;;;;;;0.80;0.45;;;8.90;99.90;;;;;;4959838;28;20106;-74
2023/12/08 00:48:58;;;;;;;1.52;0.70;;;8.90;99.90;;;;;;4958992;28;20050;-74
2023/12/08 00:51:25;;;;;;;0.68;0.52;;;8.90;99.90;;;;;;4967722;28;20483;-75
2023/12/08 00:53:52;;;;;;;1.52;0.50;;;8.80;99.90;;;;;;4942101;28;20145;-75
2023/12/08 00:56:19;;;;;;;0.73;0.50;;;8.80;99.90;;;;;;4942961;28;20050;-74
2023/12/08 00:58:46;;;;;;;1.27;0.50;;;8.70;99.90;;;;;;4950840;28;20523;-74
2023/12/08 01:01:12;;;;;;;0.57;0.30;;;8.70;99.90;;;;;;4958318;28;20050;-74
2023/12/08 01:03:39;;;;;;;1.17;0.77;;;8.70;1.00;;;;;;4941474;28;20057;-75
2023/12/08 01:06:07;;;;;;;0.80;0.50;;;8.70;1.00;;;;;;4944456;28;20125;-74
2023/12/08 01:08:34;;;;;;;0.60;0.50;;;8.70;1.00;;;;;;4943264;28;20074;-74
2023/12/08 01:11:00;;;;;;;0.45;0.40;;;8.70;1.00;;;;;;4974652;28;20051;-75
2023/12/08 01:13:28;;;;;;;0.85;0.70;;;8.60;1.00;;;;;;4957653;28;20138;-75
2023/12/08 01:15:55;;;;;;;1.20;0.70;;;8.60;1.00;;;;;;4970103;28;20042;-74
2023/12/08 01:18:23;;;;;;;1.38;0.60;;;8.60;1.00;;;;;;4962325;28;20055;-74
2023/12/08 01:20:51;;;;;;;0.80;0.40;;;8.50;1.00;;;;;;4967459;28;20371;-74
2023/12/08 01:23:18;;;;;;;1.08;0.60;;;8.50;1.00;;;;;;4957785;28;20055;-74
2023/12/08 01:25:45;;;;;;;1.02;0.55;;;8.50;1.00;;;;;;4942415;28;20070;-75
2023/12/08 01:28:14;;;;;;;0.85;0.40;;;8.50;1.00;;;;;;4958719;28;20061;-74
2023/12/08 01:30:41;;;;;;;0.90;0.50;;;8.50;1.00;;;;;;4943094;28;20055;-74
2023/12/08 01:33:08;;;;;;;1.60;0.70;;;8.50;1.00;;;;;;4957715;28;20411;-74
2023/12/08 01:35:35;;;;;;;0.63;0.30;;;8.50;1.00;;;;;;4957729;28;20078;-74
2023/12/08 01:38:02;;;;;;;0.50;0.30;;;8.50;1.00;;;;;;4947148;28;20519;-74
2023/12/08 01:40:29;;;;;;;1.60;0.63;;;8.40;1.00;;;;;;4955963;28;20050;-74
2023/12/08 01:42:56;;;;;;;1.17;0.50;;;8.40;1.00;;;;;;4957812;28;20097;-74
2023/12/08 01:45:23;;;;;;;0.77;0.50;;;8.40;1.00;;;;;;4960696;28;20050;-74
2023/12/08 01:47:50;;;;;;;1.02;0.50;;;8.40;1.00;;;;;;4959481;28;20051;-74
2023/12/08 01:50:17;;;;;;;0.57;0.50;;;8.40;1.00;;;;;;4958765;28;20145;-74
2023/12/08 01:52:44;;;;;;;1.05;0.40;;;8.50;1.00;;;;;;4958102;28;20057;-73
2023/12/08 01:55:11;;;;;;;0.90;0.50;;;8.50;24.00;;;;;;4957389;28;20112;-77
2023/12/08 01:57:38;;;;;;;1.90;0.60;;;8.50;36.90;;;;;;4958633;28;20051;-76
2023/12/08 02:00:06;;;;;;;0.65;0.55;;;8.50;24.90;;;;;;4957345;28;20054;-74
2023/12/08 02:02:34;;;;;;;0.75;0.43;;;8.60;5.20;;;;;;4960446;28;20573;-74
2023/12/08 02:05:01;;;;;;;1.10;0.38;;;8.60;1.00;;;;;;4957953;28;20697;-74
2023/12/08 02:07:28;;;;;;;0.77;0.30;;;8.60;16.00;;;;;;4965780;28;20066;-73
2023/12/08 02:09:55;;;;;;;0.77;0.50;;;8.60;1.00;;;;;;4958680;28;20493;-74
2023/12/08 02:12:22;;;;;;;0.98;0.60;;;8.60;1.00;;;;;;4956477;28;20413;-74
2023/12/08 02:14:50;;;;;;;0.68;0.40;;;8.60;1.00;;;;;;4941267;28;20065;-73
2023/12/08 02:17:23;;;;;;;0.63;0.30;;;8.60;1.00;;;;;;4958389;28;20051;-74
2023/12/08 02:19:50;;;;;;;1.98;0.60;;;8.60;1.00;;;;;;4941961;28;20586;-74
2023/12/08 02:22:18;;;;;;;1.88;0.75;;;8.60;99.90;;;;;;4942155;28;20497;-74
2023/12/08 02:24:45;;;;;;;1.33;0.68;;;8.60;1.00;;;;;;4958302;28;20054;-74
2023/12/08 02:27:11;;;;;;;0.70;0.55;;;8.60;1.00;;;;;;4964405;28;20067;-74
2023/12/08 02:29:40;;;;;;;1.48;0.68;;;8.60;1.00;;;;;;4946485;28;20117;-74
2023/12/08 02:32:16;;;;;;;1.08;0.60;;;8.50;99.90;;;;;;4956075;28;20111;-74
2023/12/08 02:34:44;;;;;;;1.60;0.98;;;8.60;99.90;;;;;;4977432;28;20633;-74
2023/12/08 02:37:11;;;;;;;2.13;0.80;;;8.50;99.90;;;;;;4972113;28;20129;-74
2023/12/08 02:39:38;;;;;;;0.93;0.50;;;8.50;99.90;;;;;;4963477;28;20067;-74
2023/12/08 02:42:05;;;;;;;0.85;0.38;;;8.50;99.90;;;;;;4965902;28;20046;-74
2023/12/08 02:44:32;;;;;;;2.42;1.30;;;8.50;99.90;;;;;;4951427;28;20043;-74
2023/12/08 02:46:59;;;;;;;1.88;0.60;;;8.50;99.90;;;;;;4949573;28;20050;-74
2023/12/08 02:49:26;;;;;;;1.58;0.57;;;8.50;99.90;;;;;;4951635;28;20133;-74
2023/12/08 02:51:56;;;;;;;0.88;0.50;;;8.40;99.90;;;;;;4966343;28;20501;-74
2023/12/08 02:54:24;;;;;;;1.25;0.50;;;8.40;99.90;;;;;;4963527;28;20046;-74
2023/12/08 02:56:52;;;;;;;0.47;0.40;;;8.40;99.90;;;;;;4964880;28;20050;-74
2023/12/08 02:59:18;;;;;;;2.60;0.80;;;8.30;99.90;;;;;;4966457;28;20152;-74
2023/12/08 03:01:45;;;;;;;1.05;0.65;;;8.30;99.90;;;;;;4966223;28;20046;-74
2023/12/08 03:04:14;;;;;;;3.05;0.70;;;8.30;99.90;;;;;;4956182;28;20059;-74
2023/12/08 03:06:41;;;;;;;2.03;0.68;;;8.30;99.90;;;;;;4968261;28;20054;-74
2023/12/08 03:09:08;;;;;;;1.73;0.52;;;8.30;99.90;;;;;;4961983;28;20084;-74
2023/12/08 03:11:35;;;;;;;1.65;1.00;;;8.30;99.90;;;;;;4945738;28;20477;-74
2023/12/08 03:14:02;;;;;;;2.53;1.00;;;8.30;99.90;;;;;;4958925;28;20572;-74
2023/12/08 03:16:28;;;;;;;1.25;0.50;;;8.30;99.90;;;;;;4947456;28;20047;-74
2023/12/08 03:18:55;;;;;;;2.25;0.90;;;8.30;99.90;;;;;;4956534;28;20065;-74
2023/12/08 03:21:23;;;;;;;1.35;0.82;;;8.30;99.90;;;;;;4962485;28;20058;-74
2023/12/08 03:23:50;;;;;;;5.05;1.02;;;8.30;99.90;;;;;;4952625;28;20058;-74
2023/12/08 03:26:17;;;;;;;1.58;0.60;;;8.30;99.90;;;;;;4975301;28;20053;-74
2023/12/08 03:28:44;;;;;;;1.13;0.55;;;8.20;99.90;;;;;;4951779;28;20501;-74
2023/12/08 03:31:21;;;;;;;1.42;0.98;;;8.20;99.90;;;;;;4979702;28;20050;-74
2023/12/08 03:33:48;;;;;;;1.92;0.60;;;8.20;64.40;;;;;;4943519;28;20601;-74
2023/12/08 03:36:16;;;;;;;1.55;0.57;;;8.20;99.90;;;;;;4948345;28;20484;-74
2023/12/08 03:38:43;;;;;;;0.88;0.52;;;8.10;93.90;;;;;;4940701;28;20539;-74
2023/12/08 03:41:11;;;;;;;2.35;0.60;;;8.10;20.70;;;;;;4946275;28;20145;-74
2023/12/08 03:43:38;;;;;;;1.38;0.55;;;8.10;93.20;;;;;;4952145;28;20050;-74
2023/12/08 03:46:06;;;;;;;1.45;0.75;;;8.10;99.90;;;;;;4947953;28;20117;-74
2023/12/08 03:48:34;;;;;;;0.70;0.40;;;8.10;48.30;;;;;;4965211;28;20062;-74
2023/12/08 03:51:01;;;;;;;1.42;0.65;;;8.00;1.00;;;;;;4950521;28;20051;-74
2023/12/08 03:53:28;;;;;;;1.17;0.40;;;8.00;32.70;;;;;;4951348;28;20054;-73
2023/12/08 03:55:55;;;;;;;0.52;0.40;;;8.00;24.90;;;;;;4938247;28;20109;-74
2023/12/08 03:58:22;;;;;;;0.60;0.40;;;8.00;44.70;;;;;;4965888;28;20058;-74
2023/12/08 04:00:49;;;;;;;0.38;0.38;;;8.00;99.90;;;;;;4962833;28;20050;-74
2023/12/08 04:03:16;;;;;;;1.50;0.50;;;7.90;10.70;;;;;;4976070;28;20059;-74
2023/12/08 04:05:43;;;;;;;0.75;0.40;;;7.90;1.00;;;;;;4946708;28;20722;-74
2023/12/08 04:08:10;;;;;;;1.60;0.70;;;7.90;1.00;;;;;;4967232;28;20051;-74
2023/12/08 04:10:37;;;;;;;0.63;0.35;;;7.80;1.00;;;;;;4956677;28;20047;-74
2023/12/08 04:13:04;;;;;;;0.93;0.50;;;7.80;1.00;;;;;;4964853;28;20412;-76
2023/12/08 04:15:31;;;;;;;1.30;0.50;;;7.70;1.00;;;;;;4977204;28;20054;-74
2023/12/08 04:17:58;;;;;;;1.30;0.60;;;7.70;1.00;;;;;;4965495;28;20368;-73
2023/12/08 04:20:26;;;;;;;0.40;0.40;;;7.70;99.90;;;;;;4965457;28;20054;-76
2023/12/08 04:22:52;;;;;;;0.80;0.43;;;7.60;99.90;;;;;;4965715;28;20066;-76
2023/12/08 04:25:19;;;;;;;0.73;0.30;;;7.60;99.90;;;;;;4965331;28;20420;-73
2023/12/08 04:27:47;;;;;;;1.65;0.60;;;7.50;99.90;;;;;;4933486;28;20051;-73
2023/12/08 04:30:14;;;;;;;1.85;0.55;;;7.50;99.90;;;;;;4964349;28;20142;-73
2023/12/08 04:32:42;;;;;;;0.85;0.50;;;7.40;1.00;;;;;;4949806;28;20074;-74
2023/12/08 04:35:09;;;;;;;0.85;0.38;;;7.40;11.40;;;;;;4970808;28;20082;-73
2023/12/08 04:37:36;;;;;;;0.85;0.55;;;7.40;68.60;;;;;;4969018;28;20050;-74
2023/12/08 04:40:03;;;;;;;0.93;0.60;;;7.40;99.90;;;;;;5013374;28;20081;-76
2023/12/08 04:42:30;;;;;;;1.15;0.50;;;7.50;99.90;;;;;;5014504;28;20046;-74
2023/12/08 04:44:58;;;;;;;1.40;0.40;;;7.40;95.20;;;;;;5000541;28;20046;-74
2023/12/08 04:47:25;;;;;;;1.42;0.70;;;7.40;99.90;;;;;;5010641;28;20042;-73
2023/12/08 04:49:53;;;;;;;1.92;0.77;;;7.30;99.90;;;;;;5003217;28;20077;-76
2023/12/08 04:52:20;;;;;;;1.42;0.50;;;7.30;99.90;;;;;;5002818;28;20046;-74
2023/12/08 04:54:47;;;;;;;0.98;0.55;;;7.30;99.90;;;;;;5019356;28;20063;-73
2023/12/08 04:57:14;;;;;;;0.82;0.47;;;7.30;99.90;;;;;;4990560;28;20049;-74
2023/12/08 04:59:41;;;;;;;1.30;0.50;;;7.30;99.90;;;;;;4989560;28;20053;-74
2023/12/08 05:02:08;;;;;;;1.25;0.47;;;7.30;99.90;;;;;;5008215;28;20901;-77
2023/12/08 05:04:35;;;;;;;1.65;0.60;;;7.20;99.90;;;;;;4995155;28;20057;-74
2023/12/08 05:07:02;;;;;;;0.60;0.30;;;7.20;99.90;;;;;;4958291;28;20195;-74
2023/12/08 05:09:29;;;;;;;1.05;0.50;;;7.20;99.90;;;;;;4981555;28;20392;-76
2023/12/08 05:11:56;;;;;;;0.57;0.50;;;7.10;99.90;;;;;;4971125;28;20056;-76
2023/12/08 05:14:23;;;;;;;1.45;0.50;;;7.10;99.90;;;;;;4981552;28;20090;-77
2023/12/08 05:16:49;;;;;;;0.68;0.32;;;7.10;99.90;;;;;;4989448;28;20045;-77
2023/12/08 05:19:16;;;;;;;1.13;0.45;;;7.20;99.90;;;;;;5007542;28;20045;-74
2023/12/08 05:21:44;;;;;;;1.48;0.50;;;7.10;99.90;;;;;;4973301;28;20132;-73
2023/12/08 05:24:11;;;;;;;1.20;0.75;;;7.10;99.90;;;;;;5004547;28;20060;-77
2023/12/08 05:26:38;;;;;;;1.40;0.75;;;7.10;99.90;;;;;;4971398;28;20044;-76
2023/12/08 05:29:05;;;;;;;0.75;0.40;;;7.00;99.90;;;;;;5008759;28;20054;-76
2023/12/08 05:31:32;;;;;;;0.98;0.43;;;7.00;99.90;;;;;;4985380;28;20128;-76
2023/12/08 05:33:59;;;;;;;1.45;0.55;;;7.00;99.90;;;;;;4956770;28;20400;-77
2023/12/08 05:36:26;;;;;;;0.63;0.40;;;6.90;99.90;;;;;;4954664;28;20048;-74
2023/12/08 05:38:54;;;;;;;0.70;0.40;;;6.80;99.90;;;;;;5002051;28;20059;-73
2023/12/08 05:41:21;;;;;;;1.08;0.57;;;6.80;99.90;;;;;;4971678;28;20084;-74
2023/12/08 05:43:49;;;;;;;1.00;0.43;;;6.70;99.90;;;;;;4976402;28;20059;-73
2023/12/08 05:46:15;;;;;;;1.05;0.60;;;6.60;99.90;;;;;;4977016;28;20043;-76
2023/12/08 05:48:44;;;;;;;0.75;0.40;;;6.60;42.00;;;;;;4976394;28;20050;-74
2023/12/08 05:51:11;;;;;;;1.00;0.43;;;6.50;99.90;;;;;;4981178;28;20488;-73
2023/12/08 05:53:39;;;;;;;1.10;0.43;;;6.50;49.80;;;;;;4935931;28;20055;-76
2023/12/08 05:56:07;;;;;;;0.43;0.35;;;6.40;53.70;;;;;;4947586;28;20063;-76
2023/12/08 05:58:34;;;;;;;0.95;0.47;;;6.40;99.90;;;;;;4944531;29;20462;-77
2023/12/08 06:01:00;;;;;;;1.13;0.80;;;6.30;99.90;;;;;;4962367;28;20112;-76
2023/12/08 06:03:27;;;;;;;1.38;0.40;;;6.30;99.90;;;;;;4962805;28;20136;-76
2023/12/08 06:05:54;;;;;;;0.55;0.30;;;6.30;99.90;;;;;;4961309;28;20055;-73
2023/12/08 06:08:21;;;;;;;0.80;0.55;;;6.20;99.90;;;;;;4959207;28;20114;-76
2023/12/08 06:10:48;;;;;;;0.30;0.28;;;6.20;99.90;;;;;;4974546;28;20054;-74
2023/12/08 06:13:15;;;;;;;2.85;0.60;;;6.20;99.90;;;;;;4965497;28;20061;-76
2023/12/08 06:15:42;;;;;;;1.42;0.30;;;6.30;1.00;;;;;;4967120;28;20055;-76
2023/12/08 06:18:10;;;;;;;0.73;0.32;;;6.30;1.00;;;;;;4968311;28;20054;-77
2023/12/08 06:20:37;;;;;;;0.50;0.28;;;6.40;50.60;;;;;;4944532;28;20089;-76
2023/12/08 06:23:04;;;;;;;0.47;0.45;;;6.50;99.90;;;;;;4962767;28;20553;-74
2023/12/08 06:25:31;;;;;;;0.55;0.40;;;6.50;99.90;;;;;;4977569;28;20043;-74
2023/12/08 06:27:58;;;;;;;0.52;0.40;;;6.60;99.90;;;;;;4951142;28;20054;-74
2023/12/08 06:30:24;;;;;;;1.77;0.60;;;6.60;99.90;;;;;;4971267;28;20065;-74
2023/12/08 06:32:51;;;;;;;0.50;0.40;;;6.60;99.90;;;;;;4969927;28;20547;-73
2023/12/08 06:35:18;;;;;;;2.65;0.70;;;6.60;99.90;;;;;;4947485;28;20113;-73
2023/12/08 06:37:45;;;;;;;1.55;0.55;;;6.70;99.90;;;;;;4958593;28;20046;-73
2023/12/08 06:40:12;;;;;;;0.68;0.40;;;6.70;99.90;;;;;;4952698;28;20637;-74
2023/12/08 06:42:39;;;;;;;0.80;0.50;;;6.80;99.90;;;;;;4953057;28;20050;-76
2023/12/08 06:45:07;;;;;;;0.68;0.55;;;6.80;99.90;;;;;;4969622;28;20057;-73
2023/12/08 06:47:35;;;;;;;0.80;0.50;;;6.90;99.90;;;;;;4994035;28;20061;-74
2023/12/08 06:50:02;;;;;;;0.35;0.30;;;6.90;99.90;;;;;;4973719;28;20074;-76
2023/12/08 06:52:29;;;;;;;0.88;0.88;;;6.90;99.90;;;;;;4967645;28;20042;-76
2023/12/08 06:54:56;;;;;;;0.43;0.38;;;6.90;99.90;;;;;;4970109;28;20119;-74
2023/12/08 06:57:22;;;;;;;1.70;0.50;;;6.90;99.90;;;;;;4969668;28;20050;-77
2023/12/08 06:59:50;;;;;;;2.00;0.50;;;6.90;99.90;;;;;;5002467;28;20056;-77
2023/12/08 07:02:17;;;;;;;0.85;0.30;;;6.80;99.90;;;;;;4999591;28;21378;-74
2023/12/08 07:04:44;;;;;;;0.70;0.30;;;6.80;99.90;;;;;;5003048;28;20056;-77
2023/12/08 07:07:11;;;;;;;1.35;0.47;;;6.70;99.90;;;;;;4981114;28;20041;-77
2023/12/08 07:09:38;;;;;;;0.90;0.40;;;6.80;99.90;;;;;;4966841;28;20073;-77
2023/12/08 07:12:06;;;;;;;0.80;0.38;;;6.80;99.90;;;;;;4982604;28;20050;-77
2023/12/08 07:14:33;;;;;;;1.17;0.40;;;6.80;99.90;;;;;;4967555;28;20406;-77
2023/12/08 07:17:00;;;;;;;0.68;0.30;;;6.80;99.90;;;;;;4983191;28;20042;-76
2023/12/08 07:19:26;;;;;;;1.52;1.10;;;6.80;99.90;;;;;;4962838;28;20046;-76
2023/12/08 07:21:54;;;;;;;1.65;0.45;;;6.80;99.90;;;;;;4965728;28;20054;-77
2023/12/08 07:24:20;;;;;;;0.77;0.40;;;6.80;99.90;;;;;;4977703;28;20145;-76
2023/12/08 07:26:47;;;;;;;1.88;0.82;;;6.80;99.90;;;;;;4984946;28;20407;-74
2023/12/08 07:29:14;;;;;;;1.02;0.50;;;6.80;99.90;;;;;;4989400;28;20645;-77
2023/12/08 07:31:41;;;;;;;2.47;0.60;;;6.90;99.90;;;;;;4983290;28;20050;-77
2023/12/08 07:34:08;;;;;;;1.35;0.60;;;6.90;99.90;;;;;;4985732;28;20046;-77
2023/12/08 07:36:35;;;;;;;0.90;0.47;;;7.00;99.90;;;;;;4984785;28;20042;-74
2023/12/08 07:39:02;;;;;;;1.88;0.60;;;7.00;99.90;;;;;;4974010;28;20054;-76
2023/12/08 07:41:30;;;;;;;1.35;0.50;;;7.10;99.90;;;;;;4970425;28;20050;-77
2023/12/08 07:43:56;;;;;;;0.82;0.52;;;7.10;99.90;;;;;;4951269;28;20059;-74
2023/12/08 07:46:24;;;;;;;1.33;0.45;;;7.10;99.90;;;;;;4952719;28;20558;-76
2023/12/08 07:48:50;;;;;;;0.40;0.40;;;7.20;99.90;;;;;;4944306;28;20100;-76
2023/12/08 07:51:18;;;;;;;0.93;0.40;;;7.20;99.90;;;;;;4973523;28;20046;-76
2023/12/08 07:53:45;;;;;;;0.82;0.35;;;7.10;99.90;;;;;;4951444;28;20043;-76
2023/12/08 07:56:13;;;;;;;0.40;0.35;;;7.10;99.90;;;;;;4947684;28;20054;-76
2023/12/08 07:58:41;;;;;;;0.77;0.35;;;7.10;99.90;;;;;;4977588;28;20051;-75
2023/12/08 08:01:08;;;;;;;1.10;0.57;;;7.10;99.90;;;;;;4962650;28;20082;-74
2023/12/08 08:03:35;;;;;;;0.80;0.55;;;7.20;99.90;;;;;;4964769;28;20496;-75
2023/12/08 08:06:02;;;;;;;0.68;0.40;;;7.20;84.10;;;;;;4975908;28;20133;-75
2023/12/08 08:08:30;;;;;;;0.30;0.30;;;7.10;47.90;;;;;;4966865;28;20053;-74
2023/12/08 08:10:57;;;;;;;0.60;0.30;;;7.10;35.70;;;;;;4953713;28;20218;-74
2023/12/08 08:13:24;;;;;;;0.45;0.40;;;7.20;31.90;;;;;;4955604;28;20081;-75
2023/12/08 08:15:51;;;;;;;0.57;0.35;;;7.20;8.20;;;;;;4929715;28;20062;-75
2023/12/08 08:18:17;;;;;;;1.85;0.75;;;7.20;1.00;;;;;;4974200;28;20047;-75
2023/12/08 08:20:45;;;;;;;0.75;0.38;;;7.20;1.00;;;;;;4962745;28;20065;-83
2023/12/08 08:23:12;;;;;;;1.92;0.50;;;7.20;1.00;;;;;;4949071;28;20081;-75
2023/12/08 08:25:39;;;;;;;0.80;0.40;;;7.30;1.00;;;;;;4961826;28;20102;-74
2023/12/08 08:28:07;;;;;;;0.63;0.43;;;7.30;99.90;;;;;;4970887;28;20049;-74
2023/12/08 08:30:34;;;;;;;1.02;0.50;;;7.30;99.90;;;;;;4951058;28;20082;-74
2023/12/08 08:33:00;;;;;;;0.88;0.40;;;7.30;99.90;;;;;;4968822;28;20213;-74
2023/12/08 08:35:28;;;;;;;1.38;0.50;;;7.30;99.90;;;;;;4967325;28;20252;-76
2023/12/08 08:37:55;;;;;;;1.15;0.47;;;7.30;99.90;;;;;;4968333;28;20459;-75
2023/12/08 08:40:23;;;;;;;1.73;0.80;;;7.30;99.90;;;;;;5000171;28;20107;-76
2023/12/08 08:42:50;;;;;;;0.47;0.40;;;7.30;1.00;;;;;;4997597;28;20050;-76
2023/12/08 08:45:19;;;;;;;1.65;0.77;;;7.30;99.90;;;;;;4970219;28;20060;-76
2023/12/08 08:47:47;;;;;;;0.95;0.50;;;7.40;99.90;;;;;;4966143;28;20047;-76
2023/12/08 08:50:14;;;;;;;1.13;0.47;;;7.40;99.90;;;;;;4990135;28;20045;-76
2023/12/08 08:52:42;;;;;;;0.85;0.50;;;7.50;99.90;;;;;;4949377;28;20152;-76
2023/12/08 08:55:10;;;;;;;1.33;0.65;;;7.60;99.90;;;;;;4960829;28;20572;-75
2023/12/08 08:57:37;;;;;;;1.92;0.43;;;7.60;99.90;;;;;;4965337;28;20077;-75
2023/12/08 09:00:05;;;;;;;0.57;0.40;;;7.60;1.00;;;;;;4969173;28;20061;-76
2023/12/08 09:02:32;;;;;;;2.00;1.25;;;7.70;1.00;;;;;;4992812;28;20119;-76
2023/12/08 09:05:00;;;;;;;1.50;0.60;;;7.80;1.00;;;;;;4978043;28;20053;-76
2023/12/08 09:07:27;;;;;;;0.63;0.32;;;7.80;99.90;;;;;;4995138;28;20054;-76
2023/12/08 09:09:54;;;;;;;1.15;0.60;;;7.80;99.90;;;;;;5004814;28;20144;-76
2023/12/08 09:12:22;;;;;;;1.88;0.70;;;7.80;31.80;;;;;;4992563;28;20053;-76
2023/12/08 09:14:49;;;;;;;1.40;0.70;;;7.80;9.50;;;;;;4983548;28;20156;-76
2023/12/08 09:17:16;;;;;;;2.67;0.60;;;7.80;1.00;;;;;;4980678;28;20060;-76
2023/12/08 09:19:43;;;;;;;1.33;0.65;;;7.90;1.00;;;;;;4958282;28;20115;-76
2023/12/08 09:22:10;;;;;;;2.17;0.77;;;7.90;1.00;;;;;;5009511;28;20074;-76
2023/12/08 09:24:37;;;;;;;0.85;0.50;;;8.00;1.00;;;;;;4997646;28;20045;-76
2023/12/08 09:27:04;;;;;;;1.23;1.13;;;8.00;99.90;;;;;;4982861;28;20058;-76
2023/12/08 09:29:31;;;;;;;0.95;0.50;;;8.00;99.90;;;;;;5012932;28;20091;-75
2023/12/08 09:31:58;;;;;;;0.70;0.40;;;8.00;99.90;;;;;;4981896;28;20545;-76
2023/12/08 09:34:25;;;;;;;1.42;0.60;;;8.10;1.00;;;;;;4996425;28;20834;-76
2023/12/08 09:36:52;;;;;;;1.67;0.50;;;8.10;1.00;;;;;;4981468;28;20058;-76
2023/12/08 09:39:40;;;;;;;0.73;0.45;;;8.20;99.90;;;;;;4977542;28;20153;-76
2023/12/08 09:42:08;;;;;;;2.40;0.68;;;8.30;1.00;;;;;;4971095;28;20062;-76
2023/12/08 09:44:35;;;;;;;1.70;0.70;;;8.30;99.90;;;;;;4931002;28;20058;-76
2023/12/08 09:47:04;;;;;;;0.95;0.50;;;8.40;99.90;;;;;;4966400;28;20058;-76
2023/12/08 09:49:37;;;;;;;1.15;0.50;;;8.40;99.90;;;;;;4944208;28;20078;-76
2023/12/08 09:52:04;;;;;;;1.65;0.40;;;8.50;99.90;;;;;;4927515;28;20065;-76
2023/12/08 09:54:31;;;;;;;0.30;0.30;;;8.50;99.90;;;;;;4960797;28;20058;-76
2023/12/08 09:56:58;;;;;;;1.33;0.40;;;8.60;99.90;;;;;;4938916;28;20051;-76
2023/12/08 09:59:31;;;;;;;0.90;0.50;;;8.70;40.50;;;;;;4944492;28;20401;-76
2023/12/08 10:01:58;;;;;;;2.47;0.60;;;8.70;1.00;;;;;;4960379;28;20051;-78
2023/12/08 10:04:26;;;;;;;3.78;0.75;;;8.80;99.90;;;;;;4945319;28;20054;-79
2023/12/08 10:06:57;;;;;;;2.25;0.60;;;8.90;99.90;;;;;;4954525;28;20065;-79
2023/12/08 10:09:24;;;;;;;1.95;0.80;;;8.90;99.90;;;;;;4958373;28;20047;-79
2023/12/08 10:11:51;;;;;;;1.40;0.77;;;9.00;99.90;;;;;;4958151;28;20163;-79
2023/12/08 10:14:18;;;;;;;3.08;0.80;;;9.10;1.00;;;;;;4939534;28;20441;-80
2023/12/08 10:16:46;;;;;;;1.88;0.77;;;9.20;99.90;;;;;;4918645;29;20058;-79
2023/12/08 10:19:13;;;;;;;2.65;0.90;;;9.20;1.00;;;;;;4938225;28;20488;-79
2023/12/08 10:21:42;;;;;;;1.75;0.80;;;9.30;99.90;;;;;;4942574;28;20141;-79
2023/12/08 10:24:09;;;;;;;2.88;1.08;;;9.40;95.40;;;;;;4941371;28;20043;-79
2023/12/08 10:26:39;;;;;;;1.58;0.90;;;9.50;1.00;;;;;;4938613;28;20146;-79
2023/12/08 10:29:06;;;;;;;2.22;0.85;;;9.50;1.00;;;;;;4922592;29;20058;-79
2023/12/08 10:31:33;;;;;;;2.28;1.13;;;9.60;99.90;;;;;;4938652;28;20061;-79
2023/12/08 10:34:00;;;;;;;1.73;0.90;;;9.60;99.90;;;;;;4930214;28;20062;-79
2023/12/08 10:36:27;;;;;;;2.10;1.13;;;9.70;99.90;;;;;;4940028;28;20121;-81
2023/12/08 10:38:55;;;;;;;1.58;0.68;;;9.80;99.90;;;;;;4958084;28;20066;-79
2023/12/08 10:41:23;;;;;;;4.35;1.10;;;9.80;1.00;;;;;;4941819;28;20082;-79
2023/12/08 10:43:50;;;;;;;3.42;1.40;;;9.90;99.50;;;;;;4957216;28;20149;-79
2023/12/08 10:46:17;;;;;;;2.45;1.15;;;9.90;49.80;;;;;;4941156;28;20061;-79
2023/12/08 10:48:44;;;;;;;4.75;1.75;;;10.00;1.00;;;;;;4926094;28;20346;-80
2023/12/08 10:51:13;;;;;;;3.10;1.45;;;10.10;1.00;;;;;;4957024;28;20055;-79
2023/12/08 10:53:42;;;;;;;3.35;1.92;;;10.10;99.90;;;;;;4948433;28;20047;-80
2023/12/08 10:56:11;;;;;;;2.97;1.52;;;10.10;99.90;;;;;;4926207;28;20386;-79
2023/12/08 10:58:41;;;;;;;2.50;1.30;;;10.10;99.90;;;;;;4943638;28;20047;-82
2023/12/08 11:01:14;;;;;;;3.45;1.40;;;10.10;99.90;;;;;;4923848;28;20051;-81
2023/12/08 11:03:42;;;;;;;4.38;1.50;;;10.20;99.90;;;;;;4954485;28;20050;-80
2023/12/08 11:06:34;;;;;;;2.50;0.88;;;10.20;95.30;;;;;;4958796;28;20224;-80
2023/12/08 11:09:06;;;;;;;3.15;1.27;;;10.20;61.20;;;;;;4929430;28;20050;-80
2023/12/08 11:11:33;;;;;;;3.28;1.40;;;10.20;1.00;;;;;;4930445;28;20059;-80
2023/12/08 11:14:13;;;;;;;6.40;2.20;;;10.30;1.00;;;;;;4944387;28;20043;-79
2023/12/08 11:16:52;;;;;;;2.95;1.13;;;10.30;1.00;;;;;;4946015;28;20149;-80
2023/12/08 11:19:19;;;;;;;5.05;1.60;;;10.30;99.90;;;;;;4963012;28;20055;-80
2023/12/08 11:21:49;;;;;;;2.70;0.98;;;10.40;99.90;;;;;;4947577;28;20145;-81
2023/12/08 11:24:19;;;;;;;5.18;1.77;;;10.30;99.90;;;;;;4930903;28;20070;-79
2023/12/08 11:26:55;;;;;;;4.07;1.20;;;10.40;99.90;;;;;;4943702;29;20063;-79
2023/12/08 11:29:49;;;;;;;6.72;2.05;;;10.40;99.90;;;;;;4951731;28;20654;-79
2023/12/08 11:32:35;;;;;;;5.07;1.20;;;10.50;99.90;;;;;;4935381;28;20058;-79
2023/12/08 11:35:08;;;;;;;4.13;1.45;;;10.50;99.90;;;;;;4963361;28;20153;-79
2023/12/08 11:37:35;;;;;;;3.65;1.50;;;10.50;99.90;;;;;;4933016;28;20542;-81
2023/12/08 11:40:07;;;;;;;6.07;1.67;;;10.50;94.00;;;;;;4953418;28;20050;-79
2023/12/08 11:42:34;;;;;;;2.78;1.30;;;10.60;96.10;;;;;;4937189;29;20104;-81
2023/12/08 11:45:03;;;;;;;3.58;1.67;;;10.60;99.10;;;;;;4927802;28;20051;-80
2023/12/08 11:47:32;;;;;;;4.10;1.42;;;10.60;38.70;;;;;;4958772;28;20047;-80
2023/12/08 11:49:59;;;;;;;3.70;1.20;;;10.60;32.80;;;;;;4958048;28;20051;-80
2023/12/08 11:52:31;;;;;;;2.63;1.05;;;10.70;20.30;;;;;;4948954;28;20047;-80
2023/12/08 11:55:12;;;;;;;5.35;1.50;;;10.80;46.30;;;;;;4960502;28;20051;-77
2023/12/08 11:58:09;;;;;;;1.85;1.23;;;10.90;1.00;;;;;;4948236;28;20063;-77
2023/12/08 12:00:37;;;;;;;3.35;1.30;;;11.00;1.00;;;;;;4946146;28;20078;-76
2023/12/08 12:03:05;;;;;;;2.65;1.00;;;11.00;1.00;;;;;;4949057;28;20142;-76
2023/12/08 12:05:32;;;;;;;3.05;1.45;;;11.20;1.00;;;;;;4946149;28;20042;-77
2023/12/08 12:07:59;;;;;;;4.03;1.60;;;11.30;1.00;;;;;;4971459;28;20110;-77
2023/12/08 12:10:28;;;;;;;2.85;1.30;;;11.40;1.00;;;;;;4966404;28;20050;-77
2023/12/08 12:13:14;;;;;;;2.72;1.48;;;11.50;99.90;;;;;;4965467;28;20066;-77
2023/12/08 12:15:41;;;;;;;3.40;1.23;;;11.60;99.90;;;;;;4955504;28;20133;-78
2023/12/08 12:18:10;;;;;;;4.00;1.35;;;11.70;99.90;;;;;;4949373;28;20429;-78
2023/12/08 12:20:40;;;;;;;3.15;1.52;;;11.80;99.90;;;;;;4964590;28;20055;-76
2023/12/08 12:23:08;;;;;;;4.50;1.70;;;11.90;99.90;;;;;;4944012;28;20073;-76
2023/12/08 12:25:35;;;;;;;3.97;1.73;;;12.00;99.90;;;;;;4943770;28;20070;-77
2023/12/08 12:28:02;;;;;;;3.05;1.50;;;12.00;99.90;;;;;;4959694;28;20051;-77
2023/12/08 12:30:31;;;;;;;4.60;1.85;;;12.20;99.90;;;;;;4943308;28;20125;-77
2023/12/08 12:32:58;;;;;;;4.30;1.50;;;12.20;99.90;;;;;;4943756;28;20101;-77
2023/12/08 12:35:25;;;;;;;3.47;1.50;;;12.40;99.90;;;;;;4943575;28;20050;-77
2023/12/08 12:37:55;;;;;;;5.68;1.20;;;12.50;99.90;;;;;;4947474;28;20055;-78
2023/12/08 12:40:24;;;;;;;2.97;1.30;;;12.60;99.90;;;;;;4950747;28;20050;-77
2023/12/08 12:42:51;;;;;;;3.70;1.63;;;12.70;99.90;;;;;;4949888;28;20064;-75
2023/12/08 12:45:28;;;;;;;4.85;2.05;;;12.80;99.90;;;;;;4980983;28;20414;-78
2023/12/08 12:48:07;;;;;;;2.65;1.15;;;12.80;99.90;;;;;;4966844;28;20050;-77
2023/12/08 12:50:52;;;;;;;4.05;1.65;;;12.90;99.90;;;;;;4999933;28;20050;-78
2023/12/08 12:53:19;;;;;;;4.03;1.40;;;12.90;99.90;;;;;;4982260;28;20125;-77
2023/12/08 12:55:49;;;;;;;3.58;1.13;;;13.00;99.90;;;;;;4998591;28;20121;-77
2023/12/08 12:58:22;;;;;;;5.22;2.10;;;13.10;99.90;;;;;;4964259;28;20693;-78
2023/12/08 13:00:50;;;;;;;2.50;1.30;;;13.10;99.90;;;;;;4991507;28;20057;-77
2023/12/08 13:03:18;;;;;;;3.08;1.13;;;13.00;99.90;;;;;;4966528;28;20055;-78